createdAt,value
2019-04-10T00:03:39.850Z,2.13
2019-04-10T00:13:45.625Z,2.00
2019-04-10T00:23:51.341Z,2.20
2019-04-10T00:33:56.963Z,2.00
2019-04-10T00:44:03.526Z,2.07
2019-04-10T00:54:09.833Z,2.10
2019-04-10T01:04:15.547Z,2.10
2019-04-10T01:14:21.312Z,1.80
2019-04-10T01:24:27.882Z,2.00
2019-04-10T01:34:33.752Z,1.90
2019-04-10T01:44:39.242Z,2.17
2019-04-10T01:54:45.661Z,2.10
2019-04-10T02:04:52.769Z,2.30
2019-04-10T02:14:58.651Z,2.10
2019-04-10T02:25:04.029Z,1.97
2019-04-10T02:35:13.224Z,1.93
2019-04-10T02:45:17.495Z,2.10
2019-04-10T02:55:25.056Z,2.10
2019-04-10T03:05:34.449Z,2.30
2019-04-10T03:15:40.912Z,2.40
2019-04-10T03:25:46.502Z,2.20
2019-04-10T03:35:54.861Z,2.20
2019-04-10T03:46:01.261Z,2.30
2019-04-10T03:56:07.549Z,2.30
2019-04-10T04:06:12.937Z,2.40
2019-04-10T04:16:19.190Z,2.03
2019-04-10T04:26:25.311Z,2.50
2019-04-10T04:36:30.999Z,2.17
2019-04-10T04:46:36.537Z,2.30
2019-04-10T04:56:42.288Z,2.60
2019-04-10T05:06:48.001Z,2.40
2019-04-10T05:16:53.537Z,2.53
2019-04-10T05:26:59.343Z,2.47
2019-04-10T05:37:05.290Z,2.40
2019-04-10T05:47:11.783Z,2.80
2019-04-10T05:57:18.019Z,2.60
2019-04-10T06:07:23.417Z,2.70
2019-04-10T06:17:28.809Z,2.80
2019-04-10T06:27:34.691Z,2.77
2019-04-10T06:37:40.219Z,3.20
2019-04-10T06:47:46.640Z,2.90
2019-04-10T06:57:57.278Z,2.80
2019-04-10T07:08:09.959Z,2.80
2019-04-10T07:18:08.111Z,2.97
2019-04-10T07:28:14.823Z,3.30
2019-04-10T07:38:21.343Z,2.90
2019-04-10T07:48:27.436Z,2.90
2019-04-10T07:58:32.821Z,2.73
2019-04-10T08:08:38.394Z,3.17
2019-04-10T08:18:43.913Z,3.20
2019-04-10T08:28:49.685Z,3.13
2019-04-10T08:38:55.306Z,3.20
2019-04-10T08:49:00.627Z,3.10
2019-04-10T08:59:06.038Z,3.37
2019-04-10T09:09:11.498Z,3.43
2019-04-10T09:19:18.825Z,3.70
2019-04-10T09:29:24.730Z,3.10
2019-04-10T09:39:31.739Z,4.03
2019-04-10T09:49:42.815Z,3.43
2019-04-10T09:59:45.577Z,3.40
2019-04-10T10:09:51.532Z,3.60
2019-04-10T10:19:57.489Z,3.77
2019-04-10T10:30:03.128Z,3.40
2019-04-10T10:40:10.055Z,3.40
2019-04-10T10:50:15.601Z,3.60
2019-04-10T11:00:23.124Z,3.53
2019-04-10T11:10:29.788Z,3.60
2019-04-10T11:20:36.414Z,3.90
2019-04-10T11:30:42.581Z,3.60
2019-04-10T11:40:49.706Z,3.77
2019-04-10T11:50:58.924Z,3.70
2019-04-10T12:01:08.267Z,3.60
2019-04-10T12:11:15.478Z,3.70
2019-04-10T12:21:18.213Z,3.57
2019-04-10T12:31:23.865Z,4.23
2019-04-10T12:41:29.688Z,3.53
2019-04-10T12:51:36.207Z,3.83
2019-04-10T13:01:41.734Z,3.90
2019-04-10T13:11:47.105Z,4.00
2019-04-10T13:21:53.707Z,4.40
2019-04-10T13:31:59.362Z,4.00
2019-04-10T13:42:05.894Z,4.60
2019-04-10T13:52:11.994Z,4.10
2019-04-10T14:02:25.669Z,4.30
2019-04-10T14:12:31.300Z,4.03
2019-04-10T14:22:38.397Z,4.20
2019-04-10T14:32:45.387Z,4.33
2019-04-10T14:42:51.458Z,4.33
2019-04-10T14:52:57.203Z,4.30
2019-04-10T15:03:02.757Z,4.60
2019-04-10T15:13:13.695Z,4.43
2019-04-10T15:23:15.430Z,4.70
2019-04-10T15:33:20.822Z,4.50
2019-04-10T15:43:26.889Z,4.50
2019-04-10T15:53:34.484Z,4.50
2019-04-10T16:03:40.789Z,4.70
2019-04-10T16:13:48.589Z,4.40
2019-04-10T16:24:00.498Z,4.67
2019-04-10T16:34:07.307Z,4.40
2019-04-10T16:44:13.072Z,4.80
2019-04-10T16:54:20.155Z,5.27
2019-04-10T17:04:25.822Z,5.13
2019-04-10T17:14:31.405Z,5.03
2019-04-10T17:24:37.575Z,4.90
2019-04-10T17:34:43.272Z,5.03
2019-04-10T17:44:49.757Z,4.97
2019-04-10T17:54:55.504Z,5.40
2019-04-10T18:05:02.369Z,5.03
2019-04-10T18:15:08.227Z,5.13
2019-04-10T18:25:13.899Z,4.63
2019-04-10T18:35:19.595Z,4.90
2019-04-10T18:45:28.506Z,5.10
2019-04-10T18:55:34.364Z,4.73
2019-04-10T19:05:45.690Z,4.97
2019-04-10T19:15:51.449Z,4.80
2019-04-10T19:25:57.075Z,4.30
2019-04-10T19:36:03.621Z,4.57
2019-04-10T19:46:10.346Z,4.53
2019-04-10T19:56:16.043Z,4.70
2019-04-10T20:06:23.553Z,4.50
2019-04-10T20:16:28.567Z,4.37
2019-04-10T20:26:35.015Z,4.50
2019-04-10T20:36:41.593Z,4.50
2019-04-10T20:46:47.166Z,4.87
2019-04-10T20:56:52.493Z,4.73
2019-04-10T21:06:58.582Z,4.50
2019-04-10T21:17:04.663Z,4.73
2019-04-10T21:27:11.207Z,4.53
2019-04-10T21:37:17.921Z,4.80
2019-04-10T21:47:23.607Z,4.70
2019-04-10T21:57:29.988Z,4.60
2019-04-10T22:07:53.526Z,4.50
2019-04-10T22:18:00.775Z,4.70
2019-04-10T22:28:06.414Z,5.20
2019-04-10T22:38:12.941Z,4.80
2019-04-10T22:48:18.919Z,4.90
2019-04-10T22:58:24.650Z,4.90
2019-04-10T23:08:31.697Z,4.73
2019-04-10T23:18:37.427Z,5.10
2019-04-10T23:28:43.805Z,4.73
2019-04-10T23:38:50.004Z,4.63
2019-04-10T23:48:55.684Z,4.97
2019-04-10T23:59:01.132Z,4.80
